sensor_id;sensor_type;location;lat;lon;timestamp;P1;durP1;ratioP1;P2;durP2;ratioP2
81996;SDS011;71500;50.806;8.774;2024-03-06T00:01:51;13.80;;;9.20;;
81996;SDS011;71500;50.806;8.774;2024-03-06T00:04:24;14.30;;;9.40;;
81996;SDS011;71500;50.806;8.774;2024-03-06T00:06:56;13.70;;;9.10;;
81996;SDS011;71500;50.806;8.774;2024-03-06T00:09:28;14.80;;;9.90;;
81996;SDS011;71500;50.806;8.774;2024-03-06T00:11:59;17.60;;;9.90;;
81996;SDS011;71500;50.806;8.774;2024-03-06T00:14:31;17.00;;;9.50;;
81996;SDS011;71500;50.806;8.774;2024-03-06T00:17:04;13.20;;;9.10;;
81996;SDS011;71500;50.806;8.774;2024-03-06T00:19:36;13.10;;;8.40;;
81996;SDS011;71500;50.806;8.774;2024-03-06T00:22:09;12.60;;;8.50;;
81996;SDS011;71500;50.806;8.774;2024-03-06T00:24:40;12.60;;;8.20;;
81996;SDS011;71500;50.806;8.774;2024-03-06T00:27:12;12.50;;;7.60;;
81996;SDS011;71500;50.806;8.774;2024-03-06T00:32:15;11.50;;;7.00;;
81996;SDS011;71500;50.806;8.774;2024-03-06T00:34:47;11.70;;;7.80;;
81996;SDS011;71500;50.806;8.774;2024-03-06T00:37:18;13.50;;;8.80;;
81996;SDS011;71500;50.806;8.774;2024-03-06T00:39:50;13.60;;;8.00;;
81996;SDS011;71500;50.806;8.774;2024-03-06T00:42:21;14.50;;;8.60;;
81996;SDS011;71500;50.806;8.774;2024-03-06T00:44:52;12.20;;;7.40;;
81996;SDS011;71500;50.806;8.774;2024-03-06T00:47:23;12.40;;;8.90;;
81996;SDS011;71500;50.806;8.774;2024-03-06T00:49:56;12.20;;;7.90;;
81996;SDS011;71500;50.806;8.774;2024-03-06T00:52:27;13.20;;;8.50;;
81996;SDS011;71500;50.806;8.774;2024-03-06T00:54:59;10.30;;;8.00;;
81996;SDS011;71500;50.806;8.774;2024-03-06T00:57:30;14.10;;;8.60;;
81996;SDS011;71500;50.806;8.774;2024-03-06T01:00:01;12.30;;;7.90;;
81996;SDS011;71500;50.806;8.774;2024-03-06T01:02:39;10.60;;;7.20;;
81996;SDS011;71500;50.806;8.774;2024-03-06T01:05:10;11.10;;;6.20;;
81996;SDS011;71500;50.806;8.774;2024-03-06T01:07:42;11.10;;;7.30;;
81996;SDS011;71500;50.806;8.774;2024-03-06T01:10:13;11.70;;;8.20;;
81996;SDS011;71500;50.806;8.774;2024-03-06T01:12:45;12.30;;;8.10;;
81996;SDS011;71500;50.806;8.774;2024-03-06T01:15:16;11.90;;;8.10;;
81996;SDS011;71500;50.806;8.774;2024-03-06T01:17:48;12.70;;;8.10;;
81996;SDS011;71500;50.806;8.774;2024-03-06T01:20:19;13.30;;;8.40;;
81996;SDS011;71500;50.806;8.774;2024-03-06T01:22:52;12.80;;;8.40;;
81996;SDS011;71500;50.806;8.774;2024-03-06T01:25:23;12.90;;;7.80;;
81996;SDS011;71500;50.806;8.774;2024-03-06T01:27:55;14.10;;;8.40;;
81996;SDS011;71500;50.806;8.774;2024-03-06T01:30:26;14.30;;;8.30;;
81996;SDS011;71500;50.806;8.774;2024-03-06T01:32:57;12.20;;;7.70;;
81996;SDS011;71500;50.806;8.774;2024-03-06T01:35:29;13.00;;;8.60;;
81996;SDS011;71500;50.806;8.774;2024-03-06T01:38:00;13.30;;;8.30;;
81996;SDS011;71500;50.806;8.774;2024-03-06T01:40:32;11.80;;;7.70;;
81996;SDS011;71500;50.806;8.774;2024-03-06T01:43:03;11.40;;;7.60;;
81996;SDS011;71500;50.806;8.774;2024-03-06T01:45:35;11.20;;;6.70;;
81996;SDS011;71500;50.806;8.774;2024-03-06T01:48:08;11.20;;;7.30;;
81996;SDS011;71500;50.806;8.774;2024-03-06T01:50:39;12.30;;;7.10;;
81996;SDS011;71500;50.806;8.774;2024-03-06T01:53:11;12.20;;;8.60;;
81996;SDS011;71500;50.806;8.774;2024-03-06T01:55:46;11.20;;;7.70;;
81996;SDS011;71500;50.806;8.774;2024-03-06T01:58:19;12.10;;;7.40;;
81996;SDS011;71500;50.806;8.774;2024-03-06T02:00:51;11.00;;;7.10;;
81996;SDS011;71500;50.806;8.774;2024-03-06T02:03:23;9.50;;;7.20;;
81996;SDS011;71500;50.806;8.774;2024-03-06T02:05:56;10.50;;;7.20;;
81996;SDS011;71500;50.806;8.774;2024-03-06T02:08:31;11.20;;;7.40;;
81996;SDS011;71500;50.806;8.774;2024-03-06T02:11:02;10.70;;;7.30;;
81996;SDS011;71500;50.806;8.774;2024-03-06T02:13:36;12.60;;;7.80;;
81996;SDS011;71500;50.806;8.774;2024-03-06T02:16:09;9.60;;;7.00;;
81996;SDS011;71500;50.806;8.774;2024-03-06T02:18:51;9.80;;;6.90;;
81996;SDS011;71500;50.806;8.774;2024-03-06T02:21:24;9.50;;;6.90;;
81996;SDS011;71500;50.806;8.774;2024-03-06T02:23:56;9.20;;;6.10;;
81996;SDS011;71500;50.806;8.774;2024-03-06T02:26:27;10.90;;;7.20;;
81996;SDS011;71500;50.806;8.774;2024-03-06T02:28:58;9.60;;;6.90;;
81996;SDS011;71500;50.806;8.774;2024-03-06T02:31:30;9.50;;;6.10;;
81996;SDS011;71500;50.806;8.774;2024-03-06T02:34:02;10.40;;;6.60;;
81996;SDS011;71500;50.806;8.774;2024-03-06T02:36:35;10.80;;;6.50;;
81996;SDS011;71500;50.806;8.774;2024-03-06T02:39:06;9.50;;;6.10;;
81996;SDS011;71500;50.806;8.774;2024-03-06T02:41:38;10.50;;;7.00;;
81996;SDS011;71500;50.806;8.774;2024-03-06T02:44:09;8.70;;;6.30;;
81996;SDS011;71500;50.806;8.774;2024-03-06T02:46:41;10.40;;;7.00;;
81996;SDS011;71500;50.806;8.774;2024-03-06T02:49:16;11.10;;;7.60;;
81996;SDS011;71500;50.806;8.774;2024-03-06T02:51:48;10.00;;;7.40;;
81996;SDS011;71500;50.806;8.774;2024-03-06T02:54:20;10.80;;;6.90;;
81996;SDS011;71500;50.806;8.774;2024-03-06T02:56:53;9.20;;;6.30;;
81996;SDS011;71500;50.806;8.774;2024-03-06T02:59:24;7.40;;;5.60;;
81996;SDS011;71500;50.806;8.774;2024-03-06T03:01:56;9.60;;;6.50;;
81996;SDS011;71500;50.806;8.774;2024-03-06T03:04:27;11.00;;;5.80;;
81996;SDS011;71500;50.806;8.774;2024-03-06T03:06:59;10.60;;;7.10;;
81996;SDS011;71500;50.806;8.774;2024-03-06T03:09:31;10.50;;;6.00;;
81996;SDS011;71500;50.806;8.774;2024-03-06T03:12:05;10.20;;;5.80;;
81996;SDS011;71500;50.806;8.774;2024-03-06T03:14:36;9.80;;;6.30;;
81996;SDS011;71500;50.806;8.774;2024-03-06T03:19:39;9.30;;;5.80;;
81996;SDS011;71500;50.806;8.774;2024-03-06T03:22:10;9.80;;;6.60;;
81996;SDS011;71500;50.806;8.774;2024-03-06T03:24:42;11.10;;;7.00;;
81996;SDS011;71500;50.806;8.774;2024-03-06T03:27:13;10.70;;;6.30;;
81996;SDS011;71500;50.806;8.774;2024-03-06T03:29:45;10.90;;;7.90;;
81996;SDS011;71500;50.806;8.774;2024-03-06T03:32:16;11.10;;;7.10;;
81996;SDS011;71500;50.806;8.774;2024-03-06T03:34:47;10.30;;;6.90;;
81996;SDS011;71500;50.806;8.774;2024-03-06T03:37:18;11.30;;;8.00;;
81996;SDS011;71500;50.806;8.774;2024-03-06T03:39:50;12.10;;;8.10;;
81996;SDS011;71500;50.806;8.774;2024-03-06T03:42:21;12.40;;;8.20;;
81996;SDS011;71500;50.806;8.774;2024-03-06T03:44:53;12.00;;;8.20;;
81996;SDS011;71500;50.806;8.774;2024-03-06T03:47:24;11.90;;;7.80;;
81996;SDS011;71500;50.806;8.774;2024-03-06T03:49:56;11.90;;;7.80;;
81996;SDS011;71500;50.806;8.774;2024-03-06T03:52:38;12.50;;;7.30;;
81996;SDS011;71500;50.806;8.774;2024-03-06T03:55:11;13.20;;;7.60;;
81996;SDS011;71500;50.806;8.774;2024-03-06T03:57:42;11.90;;;8.90;;
81996;SDS011;71500;50.806;8.774;2024-03-06T04:00:14;11.10;;;7.80;;
81996;SDS011;71500;50.806;8.774;2024-03-06T04:02:46;13.00;;;7.50;;
81996;SDS011;71500;50.806;8.774;2024-03-06T04:05:17;14.70;;;7.60;;
81996;SDS011;71500;50.806;8.774;2024-03-06T04:07:50;13.30;;;7.70;;
81996;SDS011;71500;50.806;8.774;2024-03-06T04:10:22;11.60;;;7.20;;
81996;SDS011;71500;50.806;8.774;2024-03-06T04:12:54;14.90;;;9.50;;
81996;SDS011;71500;50.806;8.774;2024-03-06T04:15:27;12.40;;;7.80;;
81996;SDS011;71500;50.806;8.774;2024-03-06T04:17:59;11.10;;;7.50;;
81996;SDS011;71500;50.806;8.774;2024-03-06T04:20:31;15.90;;;9.60;;
81996;SDS011;71500;50.806;8.774;2024-03-06T04:23:03;11.80;;;7.70;;
81996;SDS011;71500;50.806;8.774;2024-03-06T04:25:34;11.80;;;7.90;;
81996;SDS011;71500;50.806;8.774;2024-03-06T04:28:08;14.90;;;9.20;;
81996;SDS011;71500;50.806;8.774;2024-03-06T04:30:39;11.40;;;7.00;;
81996;SDS011;71500;50.806;8.774;2024-03-06T04:33:10;11.70;;;8.10;;
81996;SDS011;71500;50.806;8.774;2024-03-06T04:35:43;10.80;;;7.00;;
81996;SDS011;71500;50.806;8.774;2024-03-06T04:38:15;12.40;;;7.90;;
81996;SDS011;71500;50.806;8.774;2024-03-06T04:40:47;15.10;;;8.60;;
81996;SDS011;71500;50.806;8.774;2024-03-06T04:43:18;12.00;;;8.10;;
81996;SDS011;71500;50.806;8.774;2024-03-06T04:45:50;14.20;;;9.70;;
81996;SDS011;71500;50.806;8.774;2024-03-06T04:48:21;13.30;;;8.40;;
81996;SDS011;71500;50.806;8.774;2024-03-06T04:50:52;12.50;;;8.10;;
81996;SDS011;71500;50.806;8.774;2024-03-06T04:53:23;11.50;;;7.10;;
81996;SDS011;71500;50.806;8.774;2024-03-06T04:55:55;14.10;;;8.40;;
81996;SDS011;71500;50.806;8.774;2024-03-06T04:58:26;12.50;;;9.40;;
81996;SDS011;71500;50.806;8.774;2024-03-06T05:00:57;12.80;;;8.60;;
81996;SDS011;71500;50.806;8.774;2024-03-06T05:03:29;11.90;;;7.90;;
81996;SDS011;71500;50.806;8.774;2024-03-06T05:06:14;12.60;;;7.80;;
81996;SDS011;71500;50.806;8.774;2024-03-06T05:08:59;10.20;;;7.70;;
81996;SDS011;71500;50.806;8.774;2024-03-06T05:11:46;12.30;;;7.70;;
81996;SDS011;71500;50.806;8.774;2024-03-06T05:14:33;12.90;;;7.80;;
81996;SDS011;71500;50.806;8.774;2024-03-06T05:17:18;13.30;;;9.00;;
81996;SDS011;71500;50.806;8.774;2024-03-06T05:20:05;13.40;;;7.90;;
81996;SDS011;71500;50.806;8.774;2024-03-06T05:22:51;14.00;;;9.30;;
81996;SDS011;71500;50.806;8.774;2024-03-06T05:25:36;12.60;;;7.80;;
81996;SDS011;71500;50.806;8.774;2024-03-06T05:28:22;11.70;;;7.80;;
81996;SDS011;71500;50.806;8.774;2024-03-06T05:34:00;11.00;;;7.30;;
81996;SDS011;71500;50.806;8.774;2024-03-06T05:36:47;13.50;;;7.30;;
81996;SDS011;71500;50.806;8.774;2024-03-06T05:39:33;12.10;;;8.40;;
81996;SDS011;71500;50.806;8.774;2024-03-06T05:42:19;16.10;;;9.30;;
81996;SDS011;71500;50.806;8.774;2024-03-06T05:45:05;17.20;;;10.30;;
81996;SDS011;71500;50.806;8.774;2024-03-06T05:47:53;14.60;;;10.40;;
81996;SDS011;71500;50.806;8.774;2024-03-06T05:53:22;13.20;;;8.30;;
81996;SDS011;71500;50.806;8.774;2024-03-06T05:58:51;10.70;;;6.40;;
81996;SDS011;71500;50.806;8.774;2024-03-06T06:01:23;13.30;;;8.20;;
81996;SDS011;71500;50.806;8.774;2024-03-06T06:03:55;11.60;;;7.50;;
81996;SDS011;71500;50.806;8.774;2024-03-06T06:06:31;11.80;;;7.80;;
81996;SDS011;71500;50.806;8.774;2024-03-06T06:09:03;12.50;;;7.50;;
81996;SDS011;71500;50.806;8.774;2024-03-06T06:11:34;12.20;;;8.10;;
81996;SDS011;71500;50.806;8.774;2024-03-06T06:14:06;11.00;;;7.90;;
81996;SDS011;71500;50.806;8.774;2024-03-06T06:16:38;14.20;;;7.30;;
81996;SDS011;71500;50.806;8.774;2024-03-06T06:19:10;13.30;;;8.10;;
81996;SDS011;71500;50.806;8.774;2024-03-06T06:21:41;12.60;;;7.30;;
81996;SDS011;71500;50.806;8.774;2024-03-06T06:24:12;12.90;;;8.60;;
81996;SDS011;71500;50.806;8.774;2024-03-06T06:26:44;13.00;;;8.60;;
81996;SDS011;71500;50.806;8.774;2024-03-06T06:29:15;10.80;;;7.90;;
81996;SDS011;71500;50.806;8.774;2024-03-06T06:31:48;14.80;;;9.40;;
81996;SDS011;71500;50.806;8.774;2024-03-06T06:34:19;12.60;;;8.80;;
81996;SDS011;71500;50.806;8.774;2024-03-06T06:36:50;12.60;;;8.00;;
81996;SDS011;71500;50.806;8.774;2024-03-06T06:39:22;14.50;;;8.60;;
81996;SDS011;71500;50.806;8.774;2024-03-06T06:41:53;10.70;;;7.50;;
81996;SDS011;71500;50.806;8.774;2024-03-06T06:44:26;11.00;;;7.10;;
81996;SDS011;71500;50.806;8.774;2024-03-06T06:46:58;8.90;;;6.30;;
81996;SDS011;71500;50.806;8.774;2024-03-06T06:49:29;9.70;;;6.70;;
81996;SDS011;71500;50.806;8.774;2024-03-06T06:52:01;9.90;;;6.80;;
81996;SDS011;71500;50.806;8.774;2024-03-06T06:54:33;10.10;;;7.20;;
81996;SDS011;71500;50.806;8.774;2024-03-06T06:57:04;11.40;;;7.00;;
81996;SDS011;71500;50.806;8.774;2024-03-06T06:59:37;10.10;;;6.90;;
81996;SDS011;71500;50.806;8.774;2024-03-06T07:02:08;10.70;;;6.60;;
81996;SDS011;71500;50.806;8.774;2024-03-06T07:04:40;9.80;;;6.40;;
81996;SDS011;71500;50.806;8.774;2024-03-06T07:07:11;12.10;;;7.50;;
81996;SDS011;71500;50.806;8.774;2024-03-06T07:09:42;10.10;;;6.50;;
81996;SDS011;71500;50.806;8.774;2024-03-06T07:12:14;13.00;;;7.50;;
81996;SDS011;71500;50.806;8.774;2024-03-06T07:14:45;13.10;;;8.20;;
81996;SDS011;71500;50.806;8.774;2024-03-06T07:17:16;10.70;;;7.70;;
81996;SDS011;71500;50.806;8.774;2024-03-06T07:19:48;11.10;;;7.20;;
81996;SDS011;71500;50.806;8.774;2024-03-06T07:22:21;11.30;;;7.60;;
81996;SDS011;71500;50.806;8.774;2024-03-06T07:24:52;12.30;;;7.70;;
81996;SDS011;71500;50.806;8.774;2024-03-06T07:27:23;11.20;;;7.40;;
81996;SDS011;71500;50.806;8.774;2024-03-06T07:29:55;9.90;;;7.20;;
81996;SDS011;71500;50.806;8.774;2024-03-06T07:32:26;9.10;;;6.40;;
81996;SDS011;71500;50.806;8.774;2024-03-06T07:34:58;10.30;;;6.40;;
81996;SDS011;71500;50.806;8.774;2024-03-06T07:37:29;12.50;;;7.00;;
81996;SDS011;71500;50.806;8.774;2024-03-06T07:40:03;11.70;;;7.10;;
81996;SDS011;71500;50.806;8.774;2024-03-06T07:42:38;11.70;;;8.10;;
81996;SDS011;71500;50.806;8.774;2024-03-06T07:45:10;11.10;;;7.70;;
81996;SDS011;71500;50.806;8.774;2024-03-06T07:47:41;11.50;;;7.20;;
81996;SDS011;71500;50.806;8.774;2024-03-06T07:50:14;12.90;;;7.20;;
81996;SDS011;71500;50.806;8.774;2024-03-06T07:52:48;11.50;;;7.00;;
81996;SDS011;71500;50.806;8.774;2024-03-06T07:55:19;11.90;;;7.60;;
81996;SDS011;71500;50.806;8.774;2024-03-06T07:57:49;13.30;;;8.20;;
81996;SDS011;71500;50.806;8.774;2024-03-06T08:00:20;12.60;;;8.00;;
81996;SDS011;71500;50.806;8.774;2024-03-06T08:02:52;11.90;;;7.70;;
81996;SDS011;71500;50.806;8.774;2024-03-06T08:05:22;11.60;;;7.00;;
81996;SDS011;71500;50.806;8.774;2024-03-06T08:07:53;11.80;;;8.00;;
81996;SDS011;71500;50.806;8.774;2024-03-06T08:10:23;11.20;;;7.70;;
81996;SDS011;71500;50.806;8.774;2024-03-06T08:12:53;10.70;;;7.70;;
81996;SDS011;71500;50.806;8.774;2024-03-06T08:15:24;12.20;;;7.30;;
81996;SDS011;71500;50.806;8.774;2024-03-06T08:17:54;11.10;;;7.00;;
81996;SDS011;71500;50.806;8.774;2024-03-06T08:20:25;10.90;;;6.60;;
81996;SDS011;71500;50.806;8.774;2024-03-06T08:22:55;11.20;;;7.00;;
81996;SDS011;71500;50.806;8.774;2024-03-06T08:25:27;11.40;;;7.80;;
81996;SDS011;71500;50.806;8.774;2024-03-06T08:28:02;13.20;;;8.40;;
81996;SDS011;71500;50.806;8.774;2024-03-06T08:30:34;12.60;;;7.60;;
81996;SDS011;71500;50.806;8.774;2024-03-06T08:33:04;12.70;;;8.30;;
81996;SDS011;71500;50.806;8.774;2024-03-06T08:35:35;10.30;;;6.40;;
81996;SDS011;71500;50.806;8.774;2024-03-06T08:38:06;11.60;;;7.90;;
81996;SDS011;71500;50.806;8.774;2024-03-06T08:40:36;13.40;;;7.50;;
81996;SDS011;71500;50.806;8.774;2024-03-06T08:43:11;14.30;;;9.00;;
81996;SDS011;71500;50.806;8.774;2024-03-06T08:45:43;11.70;;;7.20;;
81996;SDS011;71500;50.806;8.774;2024-03-06T08:48:14;12.20;;;7.90;;
81996;SDS011;71500;50.806;8.774;2024-03-06T08:50:44;12.00;;;8.00;;
81996;SDS011;71500;50.806;8.774;2024-03-06T08:53:15;10.90;;;7.60;;
81996;SDS011;71500;50.806;8.774;2024-03-06T08:55:46;11.40;;;7.70;;
81996;SDS011;71500;50.806;8.774;2024-03-06T08:58:17;11.50;;;7.80;;
81996;SDS011;71500;50.806;8.774;2024-03-06T09:00:48;13.10;;;9.00;;
81996;SDS011;71500;50.806;8.774;2024-03-06T09:03:19;13.20;;;8.10;;
81996;SDS011;71500;50.806;8.774;2024-03-06T09:05:50;11.50;;;7.40;;
81996;SDS011;71500;50.806;8.774;2024-03-06T09:08:20;12.80;;;8.10;;
81996;SDS011;71500;50.806;8.774;2024-03-06T09:10:51;14.30;;;8.90;;
81996;SDS011;71500;50.806;8.774;2024-03-06T09:13:22;13.30;;;8.40;;
81996;SDS011;71500;50.806;8.774;2024-03-06T09:15:52;14.10;;;8.10;;
81996;SDS011;71500;50.806;8.774;2024-03-06T09:18:23;13.60;;;8.80;;
81996;SDS011;71500;50.806;8.774;2024-03-06T09:20:54;12.70;;;8.50;;
81996;SDS011;71500;50.806;8.774;2024-03-06T09:23:24;14.00;;;8.50;;
81996;SDS011;71500;50.806;8.774;2024-03-06T09:28:27;14.30;;;8.30;;
81996;SDS011;71500;50.806;8.774;2024-03-06T09:30:57;13.30;;;8.20;;
81996;SDS011;71500;50.806;8.774;2024-03-06T09:33:29;13.00;;;8.60;;
81996;SDS011;71500;50.806;8.774;2024-03-06T09:35:59;13.10;;;8.50;;
81996;SDS011;71500;50.806;8.774;2024-03-06T09:38:30;11.50;;;7.60;;
81996;SDS011;71500;50.806;8.774;2024-03-06T09:41:01;12.00;;;7.40;;
81996;SDS011;71500;50.806;8.774;2024-03-06T09:43:32;13.10;;;8.40;;
81996;SDS011;71500;50.806;8.774;2024-03-06T09:46:03;13.60;;;8.30;;
81996;SDS011;71500;50.806;8.774;2024-03-06T09:48:33;14.70;;;8.60;;
81996;SDS011;71500;50.806;8.774;2024-03-06T09:51:07;14.10;;;8.30;;
81996;SDS011;71500;50.806;8.774;2024-03-06T09:53:39;12.00;;;7.60;;
81996;SDS011;71500;50.806;8.774;2024-03-06T09:56:11;13.10;;;8.60;;
81996;SDS011;71500;50.806;8.774;2024-03-06T09:58:41;12.70;;;8.50;;
81996;SDS011;71500;50.806;8.774;2024-03-06T10:01:12;13.50;;;8.20;;
81996;SDS011;71500;50.806;8.774;2024-03-06T10:03:44;12.00;;;7.70;;
81996;SDS011;71500;50.806;8.774;2024-03-06T10:06:14;11.90;;;7.90;;
81996;SDS011;71500;50.806;8.774;2024-03-06T10:08:45;13.80;;;8.20;;
81996;SDS011;71500;50.806;8.774;2024-03-06T10:11:17;13.70;;;8.90;;
81996;SDS011;71500;50.806;8.774;2024-03-06T10:13:48;11.00;;;6.90;;
81996;SDS011;71500;50.806;8.774;2024-03-06T10:16:22;12.70;;;7.90;;
81996;SDS011;71500;50.806;8.774;2024-03-06T10:18:53;11.90;;;7.30;;
81996;SDS011;71500;50.806;8.774;2024-03-06T10:21:31;12.80;;;8.00;;
81996;SDS011;71500;50.806;8.774;2024-03-06T10:24:01;11.60;;;6.70;;
81996;SDS011;71500;50.806;8.774;2024-03-06T10:26:34;12.40;;;7.60;;
81996;SDS011;71500;50.806;8.774;2024-03-06T10:29:04;14.90;;;8.90;;
81996;SDS011;71500;50.806;8.774;2024-03-06T10:31:35;12.30;;;8.10;;
81996;SDS011;71500;50.806;8.774;2024-03-06T10:34:05;13.40;;;8.50;;
81996;SDS011;71500;50.806;8.774;2024-03-06T10:36:35;14.50;;;9.10;;
81996;SDS011;71500;50.806;8.774;2024-03-06T10:39:06;12.50;;;8.00;;
81996;SDS011;71500;50.806;8.774;2024-03-06T10:41:39;13.40;;;8.60;;
81996;SDS011;71500;50.806;8.774;2024-03-06T10:44:12;11.40;;;7.60;;
81996;SDS011;71500;50.806;8.774;2024-03-06T10:46:46;12.00;;;7.60;;
81996;SDS011;71500;50.806;8.774;2024-03-06T10:49:21;12.70;;;8.10;;
81996;SDS011;71500;50.806;8.774;2024-03-06T10:51:52;12.80;;;7.60;;
81996;SDS011;71500;50.806;8.774;2024-03-06T10:54:23;14.80;;;7.90;;
81996;SDS011;71500;50.806;8.774;2024-03-06T10:56:57;11.60;;;8.20;;
81996;SDS011;71500;50.806;8.774;2024-03-06T10:59:29;12.00;;;7.20;;
81996;SDS011;71500;50.806;8.774;2024-03-06T11:02:00;11.00;;;7.80;;
81996;SDS011;71500;50.806;8.774;2024-03-06T11:04:31;10.70;;;7.00;;
81996;SDS011;71500;50.806;8.774;2024-03-06T11:07:03;11.10;;;6.60;;
81996;SDS011;71500;50.806;8.774;2024-03-06T11:09:36;10.20;;;6.40;;
81996;SDS011;71500;50.806;8.774;2024-03-06T11:12:07;10.80;;;6.40;;
81996;SDS011;71500;50.806;8.774;2024-03-06T11:14:39;9.20;;;6.10;;
81996;SDS011;71500;50.806;8.774;2024-03-06T11:17:10;8.60;;;6.30;;
81996;SDS011;71500;50.806;8.774;2024-03-06T11:28:37;13.00;;;7.00;;
81996;SDS011;71500;50.806;8.774;2024-03-06T11:31:20;10.00;;;6.90;;
81996;SDS011;71500;50.806;8.774;2024-03-06T11:33:53;8.80;;;6.20;;
81996;SDS011;71500;50.806;8.774;2024-03-06T11:36:25;10.50;;;6.90;;
81996;SDS011;71500;50.806;8.774;2024-03-06T11:38:58;10.70;;;7.10;;
81996;SDS011;71500;50.806;8.774;2024-03-06T11:41:29;10.00;;;7.00;;
81996;SDS011;71500;50.806;8.774;2024-03-06T11:44:01;13.80;;;7.70;;
81996;SDS011;71500;50.806;8.774;2024-03-06T11:46:43;10.20;;;6.80;;
81996;SDS011;71500;50.806;8.774;2024-03-06T11:49:15;10.90;;;6.60;;
81996;SDS011;71500;50.806;8.774;2024-03-06T11:51:49;12.40;;;7.00;;
81996;SDS011;71500;50.806;8.774;2024-03-06T11:54:21;11.40;;;7.50;;
81996;SDS011;71500;50.806;8.774;2024-03-06T11:56:55;10.30;;;7.10;;
81996;SDS011;71500;50.806;8.774;2024-03-06T12:01:58;12.50;;;7.40;;
81996;SDS011;71500;50.806;8.774;2024-03-06T12:04:31;13.10;;;8.00;;
81996;SDS011;71500;50.806;8.774;2024-03-06T12:07:04;12.10;;;6.60;;
81996;SDS011;71500;50.806;8.774;2024-03-06T12:09:37;10.30;;;7.40;;
81996;SDS011;71500;50.806;8.774;2024-03-06T12:12:11;11.60;;;7.10;;
81996;SDS011;71500;50.806;8.774;2024-03-06T12:14:41;9.70;;;6.60;;
81996;SDS011;71500;50.806;8.774;2024-03-06T12:17:13;14.70;;;7.80;;
81996;SDS011;71500;50.806;8.774;2024-03-06T12:19:45;10.90;;;6.70;;
81996;SDS011;71500;50.806;8.774;2024-03-06T12:22:17;11.90;;;7.00;;
81996;SDS011;71500;50.806;8.774;2024-03-06T12:24:48;12.50;;;8.20;;
81996;SDS011;71500;50.806;8.774;2024-03-06T12:27:47;11.90;;;7.30;;
81996;SDS011;71500;50.806;8.774;2024-03-06T12:30:19;10.30;;;6.50;;
81996;SDS011;71500;50.806;8.774;2024-03-06T12:35:27;12.40;;;7.40;;
81996;SDS011;71500;50.806;8.774;2024-03-06T12:37:58;12.50;;;6.90;;
81996;SDS011;71500;50.806;8.774;2024-03-06T12:40:29;12.80;;;6.90;;
81996;SDS011;71500;50.806;8.774;2024-03-06T12:42:59;11.90;;;7.40;;
81996;SDS011;71500;50.806;8.774;2024-03-06T12:45:30;12.30;;;7.80;;
81996;SDS011;71500;50.806;8.774;2024-03-06T12:48:02;12.20;;;7.70;;
81996;SDS011;71500;50.806;8.774;2024-03-06T12:50:34;12.30;;;7.10;;
81996;SDS011;71500;50.806;8.774;2024-03-06T12:53:05;11.80;;;7.10;;
81996;SDS011;71500;50.806;8.774;2024-03-06T12:55:35;11.80;;;7.10;;
81996;SDS011;71500;50.806;8.774;2024-03-06T12:58:07;10.50;;;6.70;;
81996;SDS011;71500;50.806;8.774;2024-03-06T13:00:37;11.10;;;7.00;;
81996;SDS011;71500;50.806;8.774;2024-03-06T13:03:08;11.40;;;7.50;;
81996;SDS011;71500;50.806;8.774;2024-03-06T13:05:39;11.40;;;7.00;;
81996;SDS011;71500;50.806;8.774;2024-03-06T13:08:10;9.70;;;5.30;;
81996;SDS011;71500;50.806;8.774;2024-03-06T13:10:42;9.40;;;5.90;;
81996;SDS011;71500;50.806;8.774;2024-03-06T13:13:14;8.90;;;5.40;;
81996;SDS011;71500;50.806;8.774;2024-03-06T13:15:45;8.50;;;6.10;;
81996;SDS011;71500;50.806;8.774;2024-03-06T13:18:17;8.00;;;5.30;;
81996;SDS011;71500;50.806;8.774;2024-03-06T13:20:48;8.60;;;5.50;;
81996;SDS011;71500;50.806;8.774;2024-03-06T13:23:19;11.10;;;6.50;;
81996;SDS011;71500;50.806;8.774;2024-03-06T13:25:50;8.20;;;5.30;;
81996;SDS011;71500;50.806;8.774;2024-03-06T13:28:21;8.00;;;6.20;;
81996;SDS011;71500;50.806;8.774;2024-03-06T13:30:52;8.50;;;5.40;;
81996;SDS011;71500;50.806;8.774;2024-03-06T13:33:23;8.90;;;5.70;;
81996;SDS011;71500;50.806;8.774;2024-03-06T13:38:26;8.40;;;5.40;;
81996;SDS011;71500;50.806;8.774;2024-03-06T13:40:57;9.80;;;5.50;;
81996;SDS011;71500;50.806;8.774;2024-03-06T13:43:30;10.20;;;6.30;;
81996;SDS011;71500;50.806;8.774;2024-03-06T13:46:01;9.60;;;6.20;;
81996;SDS011;71500;50.806;8.774;2024-03-06T13:48:32;8.30;;;5.30;;
81996;SDS011;71500;50.806;8.774;2024-03-06T13:51:04;9.90;;;5.80;;
81996;SDS011;71500;50.806;8.774;2024-03-06T13:53:35;12.50;;;7.30;;
81996;SDS011;71500;50.806;8.774;2024-03-06T13:56:06;10.90;;;7.40;;
81996;SDS011;71500;50.806;8.774;2024-03-06T13:58:37;12.10;;;7.60;;
81996;SDS011;71500;50.806;8.774;2024-03-06T14:01:08;10.80;;;6.50;;
81996;SDS011;71500;50.806;8.774;2024-03-06T14:03:41;12.20;;;6.70;;
81996;SDS011;71500;50.806;8.774;2024-03-06T14:06:11;12.60;;;7.40;;
81996;SDS011;71500;50.806;8.774;2024-03-06T14:08:42;11.10;;;7.30;;
81996;SDS011;71500;50.806;8.774;2024-03-06T14:11:13;9.00;;;6.40;;
81996;SDS011;71500;50.806;8.774;2024-03-06T14:13:44;10.30;;;6.30;;
81996;SDS011;71500;50.806;8.774;2024-03-06T14:16:14;10.50;;;6.70;;
81996;SDS011;71500;50.806;8.774;2024-03-06T14:18:45;11.50;;;7.10;;
81996;SDS011;71500;50.806;8.774;2024-03-06T14:21:16;10.10;;;6.20;;
81996;SDS011;71500;50.806;8.774;2024-03-06T14:23:47;11.60;;;7.00;;
81996;SDS011;71500;50.806;8.774;2024-03-06T14:26:18;14.10;;;9.30;;
81996;SDS011;71500;50.806;8.774;2024-03-06T14:28:49;13.30;;;8.10;;
81996;SDS011;71500;50.806;8.774;2024-03-06T14:31:19;12.40;;;7.30;;
81996;SDS011;71500;50.806;8.774;2024-03-06T14:33:51;12.30;;;7.10;;
81996;SDS011;71500;50.806;8.774;2024-03-06T14:36:22;12.10;;;8.30;;
81996;SDS011;71500;50.806;8.774;2024-03-06T14:38:53;11.80;;;7.20;;
81996;SDS011;71500;50.806;8.774;2024-03-06T14:41:24;16.00;;;9.20;;
81996;SDS011;71500;50.806;8.774;2024-03-06T14:43:55;15.10;;;9.30;;
81996;SDS011;71500;50.806;8.774;2024-03-06T14:46:26;19.50;;;10.40;;
81996;SDS011;71500;50.806;8.774;2024-03-06T14:48:57;16.70;;;10.50;;
81996;SDS011;71500;50.806;8.774;2024-03-06T14:51:30;18.60;;;10.60;;
81996;SDS011;71500;50.806;8.774;2024-03-06T14:54:01;19.40;;;10.80;;
81996;SDS011;71500;50.806;8.774;2024-03-06T14:56:33;18.90;;;11.10;;
81996;SDS011;71500;50.806;8.774;2024-03-06T14:59:04;19.30;;;10.50;;
81996;SDS011;71500;50.806;8.774;2024-03-06T15:01:35;21.40;;;11.40;;
81996;SDS011;71500;50.806;8.774;2024-03-06T15:04:06;20.30;;;11.20;;
81996;SDS011;71500;50.806;8.774;2024-03-06T15:06:37;21.00;;;12.70;;
81996;SDS011;71500;50.806;8.774;2024-03-06T15:09:08;19.30;;;11.80;;
81996;SDS011;71500;50.806;8.774;2024-03-06T15:11:41;17.80;;;11.90;;
81996;SDS011;71500;50.806;8.774;2024-03-06T15:14:12;18.10;;;11.60;;
81996;SDS011;71500;50.806;8.774;2024-03-06T15:16:43;18.20;;;11.30;;
81996;SDS011;71500;50.806;8.774;2024-03-06T15:19:14;18.30;;;11.70;;
81996;SDS011;71500;50.806;8.774;2024-03-06T15:21:45;20.20;;;11.00;;
81996;SDS011;71500;50.806;8.774;2024-03-06T15:24:15;21.40;;;12.70;;
81996;SDS011;71500;50.806;8.774;2024-03-06T15:26:46;21.10;;;13.20;;
81996;SDS011;71500;50.806;8.774;2024-03-06T15:29:18;21.50;;;11.70;;
81996;SDS011;71500;50.806;8.774;2024-03-06T15:31:49;21.30;;;12.40;;
81996;SDS011;71500;50.806;8.774;2024-03-06T15:34:19;21.30;;;12.50;;
81996;SDS011;71500;50.806;8.774;2024-03-06T15:36:50;20.60;;;11.90;;
81996;SDS011;71500;50.806;8.774;2024-03-06T15:39:24;21.50;;;12.50;;